Time;durP1;ratioP1;P1;durP2;ratioP2;P2;SDS_P1;SDS_P2;PMS_P1;PMS_P2;Temp;Humidity;BMP_temperature;BMP_pressure;BME280_temperature;BME280_humidity;BME280_pressure;Samples;Min_cycle;Max_cycle;Signal;HPM_P1;HPM_P2
2021/09/15 00:01:00;;;;;;;13.63;12.07;;;;;;;16.18;80.68;100568.22;5045090;28;20041;-79
2021/09/15 00:03:25;;;;;;;14.73;13.23;;;;;;;16.14;80.64;100576.38;5033247;28;20044;-79
2021/09/15 00:05:50;;;;;;;14.68;13.20;;;;;;;16.12;80.74;100576.41;5044229;28;20041;-79
2021/09/15 00:08:16;;;;;;;14.82;13.35;;;;;;;16.09;80.68;100573.81;5042914;28;20077;-79
2021/09/15 00:10:41;;;;;;;13.48;11.88;;;;;;;16.07;80.97;100574.78;5045388;28;20037;-79
2021/09/15 00:13:07;;;;;;;14.70;13.02;;;;;;;16.03;80.91;100562.47;5027630;28;20033;-79
2021/09/15 00:15:32;;;;;;;14.32;12.82;;;;;;;16.00;80.87;100558.97;5041924;28;20049;-79
2021/09/15 00:17:59;;;;;;;15.50;13.73;;;;;;;15.96;81.18;100557.31;5044949;28;20160;-78
2021/09/15 00:20:24;;;;;;;14.93;13.45;;;;;;;15.94;80.89;100550.28;5043681;28;20049;-79
2021/09/15 00:22:49;;;;;;;15.20;13.70;;;;;;;15.90;81.09;100541.53;5044562;28;20028;-79
2021/09/15 00:25:15;;;;;;;16.05;12.85;;;;;;;15.86;81.28;100560.28;5043635;28;20204;-79
2021/09/15 00:27:40;;;;;;;17.00;15.15;;;;;;;15.80;81.36;100561.34;5043756;28;20042;-79
2021/09/15 00:30:06;;;;;;;14.10;12.65;;;;;;;15.75;81.50;100548.13;5028046;28;20025;-79
2021/09/15 00:32:31;;;;;;;14.10;12.60;;;;;;;15.75;81.41;100552.59;5042906;28;20038;-79
2021/09/15 00:34:57;;;;;;;13.57;12.18;;;;;;;15.74;81.53;100557.03;5044436;28;20025;-79
2021/09/15 00:37:22;;;;;;;13.10;11.75;;;;;;;15.73;81.68;100560.59;5058700;28;20025;-79
2021/09/15 00:39:48;;;;;;;18.08;14.98;;;;;;;15.69;81.64;100558.97;5036415;28;20059;-79
2021/09/15 00:42:13;;;;;;;15.70;14.10;;;;;;;15.67;81.84;100558.09;5044321;28;20675;-79
2021/09/15 00:44:38;;;;;;;15.13;13.50;;;;;;;15.64;81.81;100555.50;5050204;28;20035;-79
2021/09/15 00:47:04;;;;;;;14.43;13.02;;;;;;;15.60;82.13;100559.16;5046550;28;20149;-79
2021/09/15 00:49:29;;;;;;;16.50;14.90;;;;;;;15.59;82.34;100552.09;5045380;28;20037;-79
2021/09/15 00:51:55;;;;;;;14.43;12.93;;;;;;;15.58;82.38;100547.69;5044748;28;20029;-79
2021/09/15 00:54:20;;;;;;;14.75;13.25;;;;;;;15.59;82.39;100549.44;5043820;28;20041;-79
2021/09/15 00:56:47;;;;;;;14.27;11.65;;;;;;;15.58;82.61;100555.66;5043920;28;20159;-79
2021/09/15 00:59:13;;;;;;;15.07;13.48;;;;;;;15.57;82.40;100552.13;5044743;28;20615;-80
2021/09/15 01:01:39;;;;;;;15.68;14.00;;;;;;;15.58;82.56;100547.69;5040502;28;20048;-80
2021/09/15 01:04:06;;;;;;;13.95;12.55;;;;;;;15.56;82.59;100546.84;5051307;28;20529;-80
2021/09/15 01:06:33;;;;;;;16.25;14.65;;;;;;;15.59;82.44;100548.53;5049421;28;20096;-79
2021/09/15 01:09:05;;;;;;;15.65;12.95;;;;;;;15.63;82.14;100552.88;5034697;28;20033;-79
2021/09/15 01:11:34;;;;;;;14.45;12.95;;;;;;;15.66;82.18;100555.47;5050225;28;20336;-79
2021/09/15 01:14:17;;;;;;;14.70;13.27;;;;;;;15.65;82.03;100546.59;5054455;28;20041;-79
2021/09/15 01:17:03;;;;;;;14.68;13.18;;;;;;;15.70;81.90;100551.84;5032358;28;20037;-80
2021/09/15 01:19:47;;;;;;;15.35;13.75;;;;;;;15.76;82.05;100549.88;5055567;28;20048;-79
2021/09/15 01:22:31;;;;;;;15.95;14.23;;;;;;;15.80;82.05;100545.38;5055760;28;20060;-80
2021/09/15 01:25:14;;;;;;;16.40;13.23;;;;;;;15.87;81.83;100541.59;5031886;28;20033;-80
2021/09/15 01:27:58;;;;;;;14.93;13.32;;;;;;;15.91;81.82;100534.41;5055064;28;20048;-80
2021/09/15 01:30:29;;;;;;;15.35;13.75;;;;;;;15.98;81.84;100530.63;5052117;28;20033;-80
2021/09/15 01:32:55;;;;;;;13.73;12.32;;;;;;;16.04;81.71;100526.97;5049897;28;20081;-79
2021/09/15 01:35:22;;;;;;;14.52;13.02;;;;;;;16.09;81.41;100525.91;5033740;28;20029;-80
2021/09/15 01:37:48;;;;;;;14.10;12.75;;;;;;;16.11;81.38;100517.84;5024920;28;20061;-79
2021/09/15 01:40:14;;;;;;;14.45;12.95;;;;;;;16.15;81.07;100512.41;5028022;28;20060;-80
2021/09/15 01:42:40;;;;;;;13.35;12.07;;;;;;;16.19;81.03;100515.84;5038362;28;20410;-80
2021/09/15 01:45:10;;;;;;;15.23;12.80;;;;;;;16.21;80.90;100512.22;5047242;28;20101;-80
2021/09/15 01:47:37;;;;;;;14.13;12.75;;;;;;;16.24;80.98;100511.25;5055528;28;20040;-80
2021/09/15 01:50:04;;;;;;;15.88;13.95;;;;;;;16.26;80.82;100512.09;5034317;28;20368;-80
2021/09/15 01:52:30;;;;;;;14.93;13.52;;;;;;;16.27;80.50;100518.28;5036696;28;20029;-80
2021/09/15 01:54:58;;;;;;;14.05;12.70;;;;;;;16.32;80.61;100524.34;5047781;28;20033;-80
2021/09/15 01:57:23;;;;;;;13.88;12.57;;;;;;;16.35;80.51;100513.63;5050067;28;20044;-80
2021/09/15 02:00:24;;;;;;;12.48;11.25;;;;;;;16.39;80.09;100515.25;5011842;28;20586;-80
2021/09/15 02:03:09;;;;;;;13.30;11.70;;;;;;;16.37;79.84;100514.41;5030408;28;20041;-80
2021/09/15 02:05:46;;;;;;;11.45;10.32;;;;;;;16.33;79.83;100507.47;5043084;28;20036;-80
2021/09/15 02:08:29;;;;;;;13.35;12.05;;;;;;;16.33;79.61;100513.66;5044705;28;20025;-80
2021/09/15 02:11:09;;;;;;;12.02;10.77;;;;;;;16.32;79.98;100514.59;5037742;28;20057;-80
2021/09/15 02:13:34;;;;;;;14.13;12.73;;;;;;;16.27;80.05;100507.63;5035376;28;20437;-80
2021/09/15 02:16:00;;;;;;;13.65;12.10;;;;;;;16.22;80.37;100502.47;5033513;28;20112;-80
2021/09/15 02:18:26;;;;;;;14.88;13.32;;;;;;;16.25;80.33;100498.84;5048104;28;20033;-79
2021/09/15 02:21:30;;;;;;;13.85;11.73;;;;;;;16.15;80.75;100506.22;5043764;28;20068;-80
2021/09/15 02:24:17;;;;;;;12.63;11.32;;;;;;;16.16;80.59;100506.16;5049403;28;20045;-80
2021/09/15 02:27:17;;;;;;;13.18;11.95;;;;;;;16.12;80.70;100500.97;5033656;28;20043;-80
2021/09/15 02:29:44;;;;;;;13.95;10.70;;;;;;;16.17;80.58;100504.38;5037878;28;20033;-81
2021/09/15 02:32:25;;;;;;;16.47;10.43;;;;;;;16.15;80.80;100492.91;5031607;28;20034;-80
2021/09/15 02:35:00;;;;;;;12.10;10.38;;;;;;;16.13;80.67;100497.38;5050153;28;20276;-80
2021/09/15 02:37:58;;;;;;;14.93;13.32;;;;;;;16.14;80.79;100484.03;5016323;28;20071;-80
2021/09/15 02:40:41;;;;;;;15.82;13.25;;;;;;;16.13;80.67;100492.94;5040457;28;20056;-80
2021/09/15 02:43:28;;;;;;;17.38;14.43;;;;;;;16.19;80.65;100486.53;5049391;28;20041;-80
2021/09/15 02:46:10;;;;;;;16.05;14.38;;;;;;;16.28;80.31;100488.94;5030515;28;20033;-80
2021/09/15 02:48:55;;;;;;;15.70;14.02;;;;;;;16.42;79.63;100491.19;5052288;28;20063;-80
2021/09/15 02:51:27;;;;;;;15.10;13.48;;;;;;;16.48;79.61;100487.44;5054893;28;20016;-80
2021/09/15 02:54:06;;;;;;;18.27;16.48;;;;;;;16.53;79.15;100478.41;5041542;28;20033;-80
2021/09/15 02:56:37;;;;;;;16.97;15.33;;;;;;;16.56;79.17;100477.44;5032481;28;20179;-80
2021/09/15 02:59:16;;;;;;;17.35;15.65;;;;;;;16.60;79.30;100474.63;5047592;28;20317;-80
2021/09/15 03:02:08;;;;;;;18.55;16.65;;;;;;;16.66;78.50;100468.22;5044489;28;20037;-80
2021/09/15 03:04:49;;;;;;;15.68;14.07;;;;;;;16.71;78.62;100470.75;5040790;28;20048;-80
2021/09/15 03:07:29;;;;;;;17.73;15.18;;;;;;;16.73;78.14;100475.09;5054762;28;20116;-80
2021/09/15 03:09:54;;;;;;;15.45;13.85;;;;;;;16.77;77.84;100470.56;5050342;28;20071;-80
2021/09/15 03:12:19;;;;;;;14.80;13.32;;;;;;;16.76;77.90;100475.00;5036169;28;20029;-81
2021/09/15 03:14:45;;;;;;;14.07;12.43;;;;;;;16.78;77.88;100470.53;5047783;28;20052;-81
2021/09/15 03:17:11;;;;;;;13.38;12.00;;;;;;;16.77;77.22;100475.88;5044320;28;20484;-80
2021/09/15 03:19:36;;;;;;;16.00;12.90;;;;;;;16.74;77.69;100467.97;5049890;28;20068;-80
2021/09/15 03:22:02;;;;;;;12.25;10.95;;;;;;;16.70;77.43;100469.00;5041444;28;20060;-80
2021/09/15 03:24:29;;;;;;;14.90;12.52;;;;;;;16.64;77.90;100465.63;5055242;28;20033;-80
2021/09/15 03:26:56;;;;;;;16.50;13.90;;;;;;;16.61;78.13;100455.06;5051869;28;20036;-80
2021/09/15 03:29:21;;;;;;;18.85;16.95;;;;;;;16.68;78.02;100454.84;5053865;28;20052;-80
2021/09/15 03:31:47;;;;;;;18.73;16.33;;;;;;;16.76;77.70;100447.47;5063934;28;20039;-80
2021/09/15 03:34:13;;;;;;;15.57;14.00;;;;;;;16.84;77.28;100440.13;5059837;28;20043;-80
2021/09/15 03:36:38;;;;;;;13.50;12.10;;;;;;;16.86;77.03;100443.63;5042115;28;20077;-80
2021/09/15 03:39:04;;;;;;;13.15;11.75;;;;;;;16.90;76.87;100437.28;5045176;28;20037;-79
2021/09/15 03:41:30;;;;;;;14.18;12.77;;;;;;;16.92;76.87;100438.06;5026371;28;20056;-80
2021/09/15 03:43:56;;;;;;;14.15;11.68;;;;;;;16.97;76.66;100436.13;5050142;28;20033;-80
2021/09/15 03:46:22;;;;;;;13.30;11.68;;;;;;;16.98;76.58;100435.22;5048636;28;20395;-80
2021/09/15 03:48:47;;;;;;;15.20;11.77;;;;;;;17.02;76.54;100427.97;5032355;28;20021;-80
2021/09/15 03:51:13;;;;;;;14.98;13.23;;;;;;;17.03;76.16;100433.28;5033385;28;20021;-80
2021/09/15 03:53:38;;;;;;;14.75;13.35;;;;;;;17.01;76.38;100427.09;5043481;28;20032;-80
2021/09/15 03:56:04;;;;;;;12.77;11.48;;;;;;;17.02;76.41;100434.16;5030658;28;20033;-80
2021/09/15 03:58:30;;;;;;;13.05;10.85;;;;;;;16.96;76.41;100429.06;5029966;28;20060;-80
2021/09/15 04:00:56;;;;;;;15.50;12.38;;;;;;;16.89;76.60;100424.84;5028466;28;20036;-80
2021/09/15 04:03:21;;;;;;;12.23;10.52;;;;;;;16.85;76.77;100431.22;5036077;28;20029;-80
2021/09/15 04:05:47;;;;;;;11.63;10.50;;;;;;;16.75;77.10;100422.63;5027732;28;20029;-80
2021/09/15 04:08:15;;;;;;;11.98;10.77;;;;;;;16.76;77.16;100429.69;5045101;28;20036;-80
2021/09/15 04:10:40;;;;;;;13.75;11.30;;;;;;;16.80;76.95;100427.84;5051736;28;20033;-79
2021/09/15 04:13:08;;;;;;;12.60;11.35;;;;;;;16.88;76.80;100424.94;5032258;28;20519;-80
2021/09/15 04:15:35;;;;;;;14.30;12.23;;;;;;;16.95;76.15;100430.00;5045240;28;20035;-80
2021/09/15 04:18:01;;;;;;;13.48;12.07;;;;;;;16.97;76.00;100433.47;5044514;28;20033;-80
2021/09/15 04:20:27;;;;;;;12.48;10.73;;;;;;;16.98;76.73;100421.88;5027487;28;20402;-78
2021/09/15 04:22:52;;;;;;;12.30;11.00;;;;;;;17.00;76.16;100425.38;5039201;28;20033;-80
2021/09/15 04:33:35;;;;;;;15.48;13.88;;;;;;;16.88;76.83;100408.94;5046326;28;20189;-80
2021/09/15 04:36:01;;;;;;;15.70;12.48;;;;;;;16.93;76.48;100413.19;5047049;28;20111;-80
2021/09/15 04:38:27;;;;;;;16.35;11.85;;;;;;;16.98;76.25;100413.88;5036361;28;20033;-80
2021/09/15 04:40:54;;;;;;;15.75;14.25;;;;;;;17.00;75.75;100413.81;5042421;28;20059;-79
2021/09/15 04:43:20;;;;;;;17.00;15.23;;;;;;;16.99;75.68;100414.75;5025944;28;20038;-78
2021/09/15 04:45:45;;;;;;;20.17;18.05;;;;;;;17.00;75.74;100413.81;5026543;28;20072;-80
2021/09/15 04:48:15;;;;;;;18.70;16.42;;;;;;;17.01;75.95;100404.91;5049857;28;20135;-80
2021/09/15 04:50:41;;;;;;;22.38;19.95;;;;;;;17.04;75.38;100404.81;5048791;28;20064;-79
2021/09/15 04:53:06;;;;;;;21.25;19.05;;;;;;;17.11;75.26;100403.69;5035236;28;20033;-80
2021/09/15 04:55:33;;;;;;;18.52;16.05;;;;;;;17.18;75.32;100407.84;5043959;28;20028;-80
2021/09/15 04:58:00;;;;;;;13.60;11.27;;;;;;;17.28;75.30;100411.06;5039430;28;20036;-80
2021/09/15 05:00:27;;;;;;;15.07;12.57;;;;;;;17.31;75.18;100413.63;5043602;28;20041;-80
2021/09/15 05:02:59;;;;;;;19.15;16.13;;;;;;;17.41;75.01;100407.03;5039491;28;20457;-80
2021/09/15 05:05:35;;;;;;;22.45;20.05;;;;;;;17.55;74.68;100408.31;5048609;28;20037;-80
2021/09/15 05:08:01;;;;;;;19.80;17.77;;;;;;;17.67;74.24;100402.53;5035885;28;20033;-81
2021/09/15 05:10:27;;;;;;;17.77;15.55;;;;;;;17.77;73.92;100395.91;5054823;28;20028;-80
2021/09/15 05:12:55;;;;;;;20.00;17.63;;;;;;;17.83;73.75;100389.50;5038125;28;20040;-80
2021/09/15 05:15:21;;;;;;;15.38;13.70;;;;;;;17.89;73.30;100390.16;5038464;28;20028;-81
2021/09/15 05:17:49;;;;;;;13.68;12.30;;;;;;;17.93;73.26;100386.41;5053048;28;20025;-80
2021/09/15 05:20:18;;;;;;;16.50;11.10;;;;;;;17.95;72.68;100387.25;5039464;28;20039;-80
2021/09/15 05:22:46;;;;;;;13.10;10.55;;;;;;;17.89;72.94;100391.94;5043733;28;20033;-80
2021/09/15 05:25:13;;;;;;;14.52;12.50;;;;;;;17.84;73.28;100391.22;5036287;28;20064;-80
2021/09/15 05:27:39;;;;;;;18.05;16.02;;;;;;;17.88;73.35;100396.41;5048499;28;20028;-81
2021/09/15 05:30:05;;;;;;;14.10;12.35;;;;;;;17.91;73.28;100404.28;5048308;28;20104;-80
2021/09/15 05:32:36;;;;;;;12.80;9.75;;;;;;;17.87;73.10;100404.50;5021835;28;20036;-81
2021/09/15 05:35:03;;;;;;;10.30;9.23;;;;;;;17.90;72.83;100404.38;5023832;28;20033;-80
2021/09/15 05:37:29;;;;;;;10.30;8.77;;;;;;;17.91;73.02;100398.09;5030921;28;20096;-81
2021/09/15 05:39:54;;;;;;;9.52;8.00;;;;;;;17.99;72.60;100403.13;5046464;28;20069;-81
2021/09/15 05:42:20;;;;;;;10.32;9.27;;;;;;;18.02;72.92;100400.34;5046585;28;20084;-81
2021/09/15 05:44:45;;;;;;;10.45;8.77;;;;;;;18.09;72.85;100404.50;5032201;28;20040;-80
2021/09/15 05:47:10;;;;;;;11.13;9.82;;;;;;;18.13;72.44;100408.78;5045618;28;20037;-79
2021/09/15 05:49:36;;;;;;;12.82;11.52;;;;;;;18.17;72.60;100410.41;5028809;28;20121;-80
2021/09/15 05:52:02;;;;;;;15.15;13.55;;;;;;;18.22;72.33;100408.44;5031374;28;20085;-80
2021/09/15 05:54:28;;;;;;;17.77;16.02;;;;;;;18.27;72.22;100416.28;5045356;28;20033;-80
2021/09/15 05:56:53;;;;;;;14.43;12.80;;;;;;;18.31;72.28;100418.78;5039090;28;20120;-80
2021/09/15 05:59:18;;;;;;;12.23;10.55;;;;;;;18.33;72.16;100411.53;5029973;28;20396;-80
2021/09/15 06:01:44;;;;;;;9.57;8.68;;;;;;;18.36;72.11;100416.75;5046965;28;20060;-80
2021/09/15 06:04:09;;;;;;;10.18;8.55;;;;;;;18.34;72.04;100413.31;5045348;28;20073;-80
2021/09/15 06:07:01;;;;;;;11.00;8.67;;;;;;;18.33;72.16;100406.19;5045529;28;20038;-80
2021/09/15 06:09:27;;;;;;;9.00;7.97;;;;;;;18.42;71.97;100404.09;5048693;28;20279;-81
2021/09/15 06:11:52;;;;;;;8.77;7.60;;;;;;;18.51;71.94;100398.38;5019630;28;20064;-79
2021/09/15 06:14:19;;;;;;;10.88;9.32;;;;;;;18.65;71.18;100403.16;5035596;28;20065;-79
2021/09/15 06:16:45;;;;;;;12.10;9.50;;;;;;;18.83;70.88;100403.28;5039058;28;20042;-79
2021/09/15 06:19:11;;;;;;;10.88;9.18;;;;;;;18.93;70.46;100400.22;5027625;28;20056;-79
2021/09/15 06:21:55;;;;;;;11.80;8.07;;;;;;;18.97;70.42;100396.50;5049414;28;20091;-79
2021/09/15 06:24:39;;;;;;;9.00;8.10;;;;;;;19.03;70.21;100391.72;5039329;28;20131;-79
2021/09/15 06:27:04;;;;;;;8.82;7.55;;;;;;;19.11;70.49;100399.44;5027898;28;20068;-79
2021/09/15 06:29:29;;;;;;;8.75;7.22;;;;;;;19.31;70.19;100403.00;5047648;28;20037;-79
2021/09/15 06:31:55;;;;;;;15.00;11.77;;;;;;;19.51;69.28;100403.00;5047612;28;20022;-79
2021/09/15 06:34:20;;;;;;;18.50;16.13;;;;;;;19.63;69.10;100397.09;5045955;28;20533;-79
2021/09/15 06:36:46;;;;;;;26.33;18.95;;;;;;;19.79;68.82;100397.28;5046220;28;20029;-80
2021/09/15 06:39:11;;;;;;;16.00;12.65;;;;;;;19.93;68.47;100389.47;5028094;28;20030;-79
2021/09/15 06:41:37;;;;;;;10.20;8.68;;;;;;;20.06;68.19;100392.44;5029167;28;20064;-79
2021/09/15 06:44:08;;;;;;;9.52;7.75;;;;;;;20.15;67.91;100383.13;5034932;28;20029;-79
2021/09/15 06:46:33;;;;;;;8.93;8.02;;;;;;;20.29;67.99;100385.13;5048245;28;20095;-79
2021/09/15 06:48:58;;;;;;;9.95;7.65;;;;;;;20.39;67.58;100380.19;5047472;28;20063;-80
2021/09/15 06:51:24;;;;;;;8.07;7.28;;;;;;;20.45;67.41;100370.00;5045697;28;20037;-79
2021/09/15 06:53:49;;;;;;;8.95;7.30;;;;;;;20.51;66.88;100369.72;5030118;28;20076;-80
2021/09/15 06:56:15;;;;;;;12.90;8.43;;;;;;;20.66;67.10;100367.22;5035043;28;20030;-80
2021/09/15 06:58:41;;;;;;;11.18;8.20;;;;;;;20.76;66.51;100369.38;5033785;28;20029;-79
2021/09/15 07:01:07;;;;;;;10.68;8.50;;;;;;;20.87;66.54;100373.31;5045036;28;20404;-80
2021/09/15 07:03:32;;;;;;;7.90;6.85;;;;;;;21.02;66.10;100380.56;5047161;28;20115;-80
2021/09/15 07:05:57;;;;;;;7.25;5.97;;;;;;;21.10;65.99;100373.00;5045970;28;20044;-79
2021/09/15 07:08:23;;;;;;;9.25;7.88;;;;;;;21.18;65.86;100372.59;5047272;28;20408;-80
2021/09/15 07:10:48;;;;;;;8.40;7.60;;;;;;;21.26;65.64;100377.56;5049081;28;20036;-80
2021/09/15 07:13:14;;;;;;;8.93;7.82;;;;;;;21.34;65.97;100373.50;5052526;28;20470;-80
2021/09/15 07:15:39;;;;;;;11.38;9.25;;;;;;;21.43;66.02;100374.84;5051679;28;20039;-79
2021/09/15 07:18:06;;;;;;;9.30;8.00;;;;;;;21.52;65.30;100371.69;5053320;28;20043;-79
2021/09/15 07:20:32;;;;;;;12.38;10.50;;;;;;;21.60;64.72;100373.97;5061467;28;20058;-79
2021/09/15 07:22:57;;;;;;;9.15;8.25;;;;;;;21.64;64.65;100372.81;5046614;28;20036;-80
2021/09/15 07:25:24;;;;;;;12.05;8.48;;;;;;;21.66;64.26;100373.63;5057071;28;20039;-80
2021/09/15 07:27:49;;;;;;;8.75;7.45;;;;;;;21.73;63.59;100366.97;5035926;28;20049;-80
2021/09/15 07:30:15;;;;;;;9.65;8.00;;;;;;;21.85;63.72;100366.28;5043894;28;20033;-80
2021/09/15 07:32:41;;;;;;;10.00;7.88;;;;;;;22.04;63.56;100374.19;5046880;28;20075;-80
2021/09/15 07:35:09;;;;;;;11.02;7.28;;;;;;;22.24;63.06;100377.59;5050820;28;20032;-80
2021/09/15 07:37:36;;;;;;;7.93;6.00;;;;;;;22.44;62.55;100369.25;5051333;28;20642;-80
2021/09/15 07:40:06;;;;;;;9.93;6.28;;;;;;;22.66;62.09;100373.34;5029115;28;20041;-80
2021/09/15 07:42:31;;;;;;;7.30;5.85;;;;;;;22.91;60.98;100367.41;5047502;28;20098;-80
2021/09/15 07:44:56;;;;;;;7.95;6.50;;;;;;;23.06;60.38;100366.50;5044583;28;20045;-80
2021/09/15 07:47:22;;;;;;;8.40;7.20;;;;;;;23.22;59.87;100370.97;5045702;28;20041;-80
2021/09/15 07:49:49;;;;;;;10.02;7.10;;;;;;;23.40;60.01;100369.81;5044949;28;20036;-80
2021/09/15 07:52:15;;;;;;;8.35;6.97;;;;;;;23.55;59.61;100358.09;5033902;28;20034;-80
2021/09/15 07:54:41;;;;;;;7.75;6.60;;;;;;;23.59;59.27;100364.16;5046543;28;20041;-79
2021/09/15 07:57:07;;;;;;;8.13;6.97;;;;;;;23.62;59.93;100359.41;5044145;28;20391;-80
2021/09/15 07:59:33;;;;;;;9.88;8.07;;;;;;;23.68;59.96;100358.16;5043080;28;20037;-80
2021/09/15 08:01:58;;;;;;;8.20;6.60;;;;;;;23.72;59.86;100359.75;5045903;28;20033;-80
2021/09/15 08:04:24;;;;;;;9.30;6.88;;;;;;;23.56;60.13;100354.44;5043488;28;20499;-80
2021/09/15 08:06:49;;;;;;;9.77;8.73;;;;;;;23.65;60.14;100366.44;5046724;28;20033;-80
2021/09/15 08:09:14;;;;;;;10.30;7.95;;;;;;;23.77;59.07;100357.63;5042995;28;20496;-80
2021/09/15 08:11:40;;;;;;;9.60;7.38;;;;;;;23.93;58.40;100362.88;5047038;28;20442;-81
2021/09/15 08:14:05;;;;;;;22.80;9.65;;;;;;;24.02;57.86;100351.50;5044043;28;20072;-81
2021/09/15 08:16:30;;;;;;;36.72;16.35;;;;;;;24.18;57.53;100363.97;5045757;28;20046;-82
2021/09/15 08:18:58;;;;;;;19.38;12.25;;;;;;;24.33;56.91;100360.28;5044878;28;20037;-82
2021/09/15 08:21:24;;;;;;;13.93;12.43;;;;;;;24.40;56.59;100356.22;5046138;28;20041;-81
2021/09/15 08:23:49;;;;;;;14.95;11.02;;;;;;;24.57;56.22;100357.81;5026475;28;20177;-81
2021/09/15 08:26:17;;;;;;;11.57;8.27;;;;;;;24.64;55.25;100352.88;5043058;28;20081;-82
2021/09/15 08:28:43;;;;;;;17.27;8.52;;;;;;;24.71;55.22;100360.44;5026726;28;20403;-80
2021/09/15 08:31:10;;;;;;;10.77;7.00;;;;;;;24.82;55.10;100351.63;5059318;28;20495;-81
2021/09/15 08:33:35;;;;;;;13.32;7.07;;;;;;;24.92;54.55;100358.13;5037390;28;20036;-82
2021/09/15 08:36:01;;;;;;;13.68;7.72;;;;;;;25.00;54.01;100352.19;5036167;28;20514;-81
2021/09/15 08:38:26;;;;;;;15.45;7.50;;;;;;;25.03;53.80;100361.91;5053242;28;20032;-81
2021/09/15 08:40:53;;;;;;;8.00;6.22;;;;;;;25.10;53.94;100360.53;5051235;28;20037;-82
2021/09/15 08:43:19;;;;;;;12.82;5.80;;;;;;;25.21;53.41;100355.25;5053353;28;20057;-81
2021/09/15 08:45:45;;;;;;;10.75;5.75;;;;;;;25.14;53.45;100364.72;5051578;28;20029;-81
2021/09/15 08:48:13;;;;;;;10.63;5.97;;;;;;;25.13;53.31;100368.41;5041710;28;20048;-82
2021/09/15 08:50:39;;;;;;;7.50;5.18;;;;;;;25.10;53.11;100355.97;5045034;28;20099;-80
2021/09/15 08:53:05;;;;;;;15.07;6.22;;;;;;;25.09;53.12;100354.22;5045361;28;20554;-81
2021/09/15 08:55:30;;;;;;;9.18;7.38;;;;;;;25.27;53.36;100352.13;5042348;28;20040;-81
2021/09/15 08:57:55;;;;;;;10.52;7.78;;;;;;;25.55;52.63;100350.19;5044725;28;20476;-80
2021/09/15 09:00:21;;;;;;;10.05;6.18;;;;;;;25.58;52.14;100344.53;5044497;28;20057;-80
2021/09/15 09:02:50;;;;;;;8.57;5.90;;;;;;;25.67;51.72;100348.41;5044157;28;20040;-81
2021/09/15 09:05:16;;;;;;;10.05;5.97;;;;;;;25.78;51.27;100352.09;5026163;28;20064;-82
2021/09/15 09:07:43;;;;;;;8.68;5.93;;;;;;;25.88;50.88;100343.31;5026648;28;20049;-82
2021/09/15 09:10:11;;;;;;;10.50;7.93;;;;;;;25.98;50.20;100353.34;5043536;28;20115;-82
2021/09/15 09:12:39;;;;;;;8.65;5.47;;;;;;;26.11;50.17;100345.19;5044373;28;20033;-82
2021/09/15 09:15:22;;;;;;;7.68;6.60;;;;;;;26.31;49.69;100348.28;5049140;28;20606;-81
2021/09/15 09:17:57;;;;;;;9.88;7.00;;;;;;;26.45;50.08;100345.38;5042046;28;20040;-81
2021/09/15 09:20:31;;;;;;;9.45;6.90;;;;;;;26.47;48.98;100353.41;5045972;28;20060;-81
2021/09/15 09:23:13;;;;;;;7.88;5.55;;;;;;;26.34;48.72;100348.03;5032643;28;20040;-82
2021/09/15 09:25:52;;;;;;;10.02;6.20;;;;;;;26.33;49.36;100340.88;5049650;28;20032;-81
2021/09/15 09:28:18;;;;;;;6.60;5.68;;;;;;;26.49;49.77;100335.19;5046848;28;20384;-81
2021/09/15 09:30:44;;;;;;;9.57;7.53;;;;;;;26.62;49.06;100331.47;5051039;28;20032;-81
2021/09/15 09:33:10;;;;;;;8.73;7.00;;;;;;;26.70;48.70;100332.72;5042931;28;20034;-82
2021/09/15 09:35:43;;;;;;;8.02;5.70;;;;;;;26.75;48.63;100336.81;5049105;28;20047;-82
2021/09/15 09:38:34;;;;;;;11.77;6.85;;;;;;;26.71;48.58;100332.59;5033515;28;20127;-81
2021/09/15 09:41:02;;;;;;;13.88;10.52;;;;;;;26.88;49.24;100325.88;5057056;28;20048;-81
2021/09/15 09:43:30;;;;;;;12.95;10.05;;;;;;;27.08;49.29;100325.19;5046262;28;20030;-82
2021/09/15 09:45:56;;;;;;;16.15;8.93;;;;;;;27.27;49.17;100326.47;5056750;28;20079;-82
2021/09/15 09:48:40;;;;;;;12.88;8.40;;;;;;;27.32;48.66;100321.56;5040236;28;20029;-82
2021/09/15 09:51:35;;;;;;;10.70;8.27;;;;;;;27.47;48.43;100317.63;5049916;28;20087;-82
2021/09/15 09:54:26;;;;;;;9.32;8.15;;;;;;;27.55;47.59;100322.44;5050160;28;20119;-81
2021/09/15 09:56:56;;;;;;;11.07;7.25;;;;;;;27.59;47.87;100314.91;5037767;28;20056;-82
2021/09/15 09:59:25;;;;;;;7.65;6.07;;;;;;;27.76;47.99;100322.53;5049259;28;20546;-82
2021/09/15 10:01:59;;;;;;;8.57;7.68;;;;;;;27.93;47.36;100313.94;5048252;28;20045;-82
2021/09/15 10:04:28;;;;;;;9.38;8.48;;;;;;;28.13;46.86;100320.38;5047437;28;20625;-79
2021/09/15 10:06:55;;;;;;;7.68;6.80;;;;;;;28.27;46.86;100313.84;5031757;28;20029;-80
2021/09/15 10:09:22;;;;;;;12.65;8.90;;;;;;;28.40;47.14;100314.53;5038633;28;20092;-79
2021/09/15 10:11:48;;;;;;;16.15;9.40;;;;;;;28.58;46.37;100313.97;5047522;28;20025;-80
2021/09/15 10:14:16;;;;;;;11.70;9.05;;;;;;;28.62;46.33;100304.59;5048133;28;20037;-79
2021/09/15 10:16:46;;;;;;;8.57;7.78;;;;;;;28.59;46.14;100308.41;5046411;28;20415;-80
2021/09/15 10:19:16;;;;;;;10.77;9.68;;;;;;;28.61;45.85;100313.69;5045240;28;20133;-79
2021/09/15 10:21:41;;;;;;;11.43;7.15;;;;;;;28.62;46.08;100310.00;5048486;28;20043;-80
2021/09/15 10:24:07;;;;;;;17.13;10.10;;;;;;;28.58;46.24;100308.53;5058459;28;20120;-79
2021/09/15 10:26:35;;;;;;;18.45;9.48;;;;;;;28.46;46.66;100315.03;5035091;28;20041;-80
2021/09/15 10:29:30;;;;;;;13.77;10.90;;;;;;;28.14;46.24;100308.56;5030582;28;20041;-80
2021/09/15 10:32:06;;;;;;;7.80;5.40;;;;;;;28.05;46.28;100316.59;5048781;28;20488;-80
2021/09/15 10:37:12;;;;;;;;;;;;;;;27.63;46.67;100308.25;5044400;28;20045;-80
2021/09/15 10:40:01;;;;;;;6.32;3.60;;;;;;;27.33;46.96;100309.75;5045761;28;19944;-81
2021/09/15 10:45:10;;;;;;;9.27;5.15;;;;;;;27.41;47.76;100312.69;5043887;28;20037;-81
2021/09/15 10:47:47;;;;;;;7.47;4.13;;;;;;;27.13;48.27;100314.00;5043767;28;20033;-81
2021/09/15 10:50:28;;;;;;;5.55;4.10;;;;;;;26.87;49.07;100313.31;5047220;28;20039;-79
2021/09/15 10:53:15;;;;;;;5.55;4.35;;;;;;;26.70;49.44;100311.94;5051900;28;20036;-80
2021/09/15 10:55:57;;;;;;;7.20;4.35;;;;;;;26.64;49.53;100317.81;5045935;28;20041;-80
2021/09/15 10:58:25;;;;;;;8.77;5.88;;;;;;;26.59;50.07;100323.59;5029714;28;20039;-81
2021/09/15 11:00:52;;;;;;;7.10;6.07;;;;;;;26.33;50.75;100316.53;5045223;28;20038;-82
2021/09/15 11:03:40;;;;;;;9.70;4.93;;;;;;;26.15;51.30;100311.56;5036268;28;20916;-80
2021/09/15 11:06:12;;;;;;;8.35;4.65;;;;;;;25.93;52.25;100322.22;5052978;28;20517;-81
2021/09/15 11:08:38;;;;;;;8.68;5.28;;;;;;;25.76;53.12;100310.78;5052005;28;20029;-81
2021/09/15 11:11:09;;;;;;;7.57;4.38;;;;;;;25.61;53.74;100311.03;5034999;28;20033;-81
2021/09/15 11:13:34;;;;;;;6.65;4.70;;;;;;;25.56;53.73;100314.06;5050871;28;20072;-81
2021/09/15 11:16:35;;;;;;;7.55;4.68;;;;;;;25.44;54.42;100310.41;5051260;28;20040;-81
2021/09/15 11:19:07;;;;;;;10.00;5.43;;;;;;;25.43;54.84;100308.69;5050605;28;20041;-80
2021/09/15 11:21:36;;;;;;;5.68;4.75;;;;;;;25.38;54.98;100315.38;5043370;28;20033;-82
2021/09/15 11:24:16;;;;;;;10.10;6.05;;;;;;;25.31;55.57;100315.84;5048735;28;20080;-81
2021/09/15 11:26:49;;;;;;;9.18;5.80;;;;;;;25.41;55.33;100312.47;5051062;28;20119;-81
2021/09/15 11:29:38;;;;;;;7.00;5.10;;;;;;;25.50;55.15;100303.72;5034916;28;20041;-81
2021/09/15 11:32:09;;;;;;;9.27;6.45;;;;;;;25.50;56.01;100309.97;5051495;28;20039;-81
2021/09/15 11:34:47;;;;;;;7.60;5.78;;;;;;;25.55;56.24;100305.09;5055574;28;20058;-81
2021/09/15 11:37:20;;;;;;;6.57;4.70;;;;;;;25.61;56.26;100305.63;5057421;28;20041;-82
2021/09/15 11:39:57;;;;;;;8.38;5.43;;;;;;;25.49;56.66;100305.56;5058399;28;20051;-82